Ana Sayfa
METAR-TAF:

METAR-TAF

Havaalanları :

Curaçao, Hollanda Antilleri

Enlem: 12-12N, Boylam: 068-58W, yükseklik: 9 m

Güncel hava durumu gözlemi

Rapor saat 04:00 UTC de 20 dakika önce yapıldı.
Rüzgar doğudan 16 kt
Sıcaklık 27°C
Nem 79%
Basınç 1013 hPa
Görüş mesafesi 10 km veya daha fazla

METAR: TNCC 270400Z AUTO 10016KT 9999 NCD 27/23 Q1013 NOSIG

Saat: 00:20 (04:20 UTC)

Tahmin

Rapor saat 21:50 UTC de 6 saat ve 30 dakika önce yapıldı.
Ayın 27'si saat 00 UTC'den ayın 27'si saat 24 UTC'ye kadar geçerli Tahmin
Rüzgar doğudan 14 kt
Görüş mesafesi 10 km veya daha fazla
1800 ft yükseklikte parçalı bulutlu

TAF: TNCC 262150Z 2700/2724 10014KT 9999 SCT018

4.000'den fazla havaalanı için hava durumu gözlemleri ve tahminleri (METAR ve TAF raporları).

Kullanılabilir istasyonlar harita üzerinde sarı ve kırmızı noktalarla gösterilir.

İstasyonun adını görmek için fareyi noktanın üzerinde gezdirin.

Sonrasında hava gözlem ve tahminlerini görmek için tıklayın.

Haritayı değiştirmek için: yaklaştırmak için siyah artı işaretli yeşil düğmeye ve uzaklaştırmak için de eksi işaretli düğmeye hızla tıklayın; bitişik haritalar için yeşil okları kullanın.


METAR-TAF: